sensor_id;sensor_type;location;lat;lon;timestamp;pressure;altitude;pressure_sealevel;temperature;humidity
61037;BME280;57313;47.040;15.498;2022-11-03T00:00:40;97637.91;;;12.44;100.00
61037;BME280;57313;47.040;15.498;2022-11-03T00:03:07;97644.72;;;12.46;100.00
61037;BME280;57313;47.040;15.498;2022-11-03T00:05:35;97645.63;;;12.45;100.00
61037;BME280;57313;47.040;15.498;2022-11-03T00:08:05;97643.03;;;12.45;100.00
61037;BME280;57313;47.040;15.498;2022-11-03T00:10:32;97638.00;;;12.42;100.00
61037;BME280;57313;47.040;15.498;2022-11-03T00:13:00;97644.81;;;12.45;100.00
61037;BME280;57313;47.040;15.498;2022-11-03T00:15:27;97637.06;;;12.43;100.00
61037;BME280;57313;47.040;15.498;2022-11-03T00:17:55;97640.59;;;12.42;100.00
61037;BME280;57313;47.040;15.498;2022-11-03T00:20:22;97638.00;;;12.42;100.00
61037;BME280;57313;47.040;15.498;2022-11-03T00:22:49;97643.03;;;12.45;100.00
61037;BME280;57313;47.040;15.498;2022-11-03T00:25:18;97641.53;;;12.41;100.00
61037;BME280;57313;47.040;15.498;2022-11-03T00:27:45;97638.00;;;12.42;100.00
61037;BME280;57313;47.040;15.498;2022-11-03T00:30:19;97637.91;;;12.44;100.00
61037;BME280;57313;47.040;15.498;2022-11-03T00:32:47;97645.63;;;12.45;100.00
61037;BME280;57313;47.040;15.498;2022-11-03T00:35:14;97643.03;;;12.45;100.00
61037;BME280;57313;47.040;15.498;2022-11-03T00:37:41;97646.38;;;12.47;100.00
61037;BME280;57313;47.040;15.498;2022-11-03T00:40:09;97647.88;;;12.51;100.00
61037;BME280;57313;47.040;15.498;2022-11-03T00:42:37;97643.56;;;12.50;100.00
61037;BME280;57313;47.040;15.498;2022-11-03T00:45:06;97634.16;;;12.48;100.00
61037;BME280;57313;47.040;15.498;2022-11-03T00:47:33;97639.28;;;12.49;100.00
61037;BME280;57313;47.040;15.498;2022-11-03T00:50:01;97633.22;;;12.49;100.00
61037;BME280;57313;47.040;15.498;2022-11-03T00:52:28;97630.69;;;12.47;100.00
61037;BME280;57313;47.040;15.498;2022-11-03T00:54:55;97626.53;;;12.45;100.00
61037;BME280;57313;47.040;15.498;2022-11-03T00:57:23;97634.38;;;12.45;100.00
61037;BME280;57313;47.040;15.498;2022-11-03T00:59:54;97629.13;;;12.45;100.00
61037;BME280;57313;47.040;15.498;2022-11-03T01:02:21;97624.09;;;12.42;100.00
61037;BME280;57313;47.040;15.498;2022-11-03T01:04:49;97627.56;;;12.42;100.00
61037;BME280;57313;47.040;15.498;2022-11-03T01:07:19;97633.41;;;12.46;100.00
61037;BME280;57313;47.040;15.498;2022-11-03T01:09:46;97628.19;;;12.46;100.00
61037;BME280;57313;47.040;15.498;2022-11-03T01:12:15;97630.59;;;12.49;100.00
61037;BME280;57313;47.040;15.498;2022-11-03T01:14:44;97629.03;;;12.46;100.00
61037;BME280;57313;47.040;15.498;2022-11-03T01:17:16;97627.25;;;12.47;100.00
61037;BME280;57313;47.040;15.498;2022-11-03T01:19:44;97622.03;;;12.47;100.00
61037;BME280;57313;47.040;15.498;2022-11-03T01:22:13;97620.34;;;12.46;100.00
61037;BME280;57313;47.040;15.498;2022-11-03T01:24:41;97612.50;;;12.46;100.00
61037;BME280;57313;47.040;15.498;2022-11-03T01:27:09;97618.59;;;12.46;100.00
61037;BME280;57313;47.040;15.498;2022-11-03T01:29:37;97620.16;;;12.49;100.00
61037;BME280;57313;47.040;15.498;2022-11-03T01:32:05;97613.47;;;12.45;100.00
61037;BME280;57313;47.040;15.498;2022-11-03T01:34:35;97607.19;;;12.47;100.00
61037;BME280;57313;47.040;15.498;2022-11-03T01:37:03;97616.72;;;12.48;100.00
61037;BME280;57313;47.040;15.498;2022-11-03T01:39:31;97605.53;;;12.46;100.00
61037;BME280;57313;47.040;15.498;2022-11-03T01:41:59;97606.25;;;12.48;100.00
61037;BME280;57313;47.040;15.498;2022-11-03T01:44:29;97601.78;;;12.50;100.00
61037;BME280;57313;47.040;15.498;2022-11-03T01:47:05;97612.22;;;12.50;100.00
61037;BME280;57313;47.040;15.498;2022-11-03T01:49:41;97609.50;;;12.52;100.00
61037;BME280;57313;47.040;15.498;2022-11-03T01:52:14;97605.44;;;12.48;100.00
61037;BME280;57313;47.040;15.498;2022-11-03T01:54:44;97605.53;;;12.46;100.00
61037;BME280;57313;47.040;15.498;2022-11-03T01:57:16;97602.06;;;12.46;100.00
61037;BME280;57313;47.040;15.498;2022-11-03T01:59:46;97601.53;;;12.41;100.00
61037;BME280;57313;47.040;15.498;2022-11-03T02:02:15;97603.22;;;12.42;100.00
61037;BME280;57313;47.040;15.498;2022-11-03T02:04:44;97593.06;;;12.37;100.00
61037;BME280;57313;47.040;15.498;2022-11-03T02:07:16;97590.97;;;12.42;100.00
61037;BME280;57313;47.040;15.498;2022-11-03T02:09:46;97589.19;;;12.43;100.00
61037;BME280;57313;47.040;15.498;2022-11-03T02:12:15;97590.34;;;12.38;100.00
61037;BME280;57313;47.040;15.498;2022-11-03T02:14:48;97588.13;;;12.32;100.00
61037;BME280;57313;47.040;15.498;2022-11-03T02:17:20;97583.63;;;12.34;100.00
61037;BME280;57313;47.040;15.498;2022-11-03T02:19:55;97581.03;;;12.34;100.00
61037;BME280;57313;47.040;15.498;2022-11-03T02:22:33;97576.63;;;12.35;100.00
61037;BME280;57313;47.040;15.498;2022-11-03T02:25:13;97578.94;;;12.39;100.00
61037;BME280;57313;47.040;15.498;2022-11-03T02:27:45;97567.66;;;12.39;100.00
61037;BME280;57313;47.040;15.498;2022-11-03T02:30:12;97575.50;;;12.39;100.00
61037;BME280;57313;47.040;15.498;2022-11-03T02:32:48;97572.16;;;12.37;100.00
61037;BME280;57313;47.040;15.498;2022-11-03T02:35:22;97575.78;;;12.34;100.00
61037;BME280;57313;47.040;15.498;2022-11-03T02:37:55;97574.00;;;12.35;100.00
61037;BME280;57313;47.040;15.498;2022-11-03T02:40:28;97567.13;;;12.34;100.00
61037;BME280;57313;47.040;15.498;2022-11-03T02:43:00;97565.34;;;12.34;100.00
61037;BME280;57313;47.040;15.498;2022-11-03T02:45:29;97568.69;;;12.36;100.00
61037;BME280;57313;47.040;15.498;2022-11-03T02:47:59;97572.34;;;12.34;100.00
61037;BME280;57313;47.040;15.498;2022-11-03T02:50:30;97565.63;;;12.30;100.00
61037;BME280;57313;47.040;15.498;2022-11-03T02:52:58;97573.38;;;12.31;100.00
61037;BME280;57313;47.040;15.498;2022-11-03T02:55:32;97570.13;;;12.28;100.00
61037;BME280;57313;47.040;15.498;2022-11-03T02:58:11;97583.81;;;12.31;100.00
61037;BME280;57313;47.040;15.498;2022-11-03T03:00:44;97589.03;;;12.31;100.00
61037;BME280;57313;47.040;15.498;2022-11-03T03:03:17;97584.84;;;12.29;100.00
61037;BME280;57313;47.040;15.498;2022-11-03T03:05:49;97580.38;;;12.31;100.00
61037;BME280;57313;47.040;15.498;2022-11-03T03:08:21;97577.59;;;12.34;100.00
61037;BME280;57313;47.040;15.498;2022-11-03T03:10:49;97573.19;;;12.34;100.00
61037;BME280;57313;47.040;15.498;2022-11-03T03:13:21;97565.44;;;12.33;100.00
61037;BME280;57313;47.040;15.498;2022-11-03T03:16:01;97567.53;;;12.28;100.00
61037;BME280;57313;47.040;15.498;2022-11-03T03:18:40;97571.97;;;12.26;100.00
61037;BME280;57313;47.040;15.498;2022-11-03T03:21:12;97563.13;;;12.28;100.00
61037;BME280;57313;47.040;15.498;2022-11-03T03:23:45;97561.63;;;12.24;100.00
61037;BME280;57313;47.040;15.498;2022-11-03T03:26:18;97556.41;;;12.24;100.00
61037;BME280;57313;47.040;15.498;2022-11-03T03:28:51;97555.78;;;12.20;100.00
61037;BME280;57313;47.040;15.498;2022-11-03T03:31:21;97559.50;;;12.16;100.00
61037;BME280;57313;47.040;15.498;2022-11-03T03:33:51;97557.84;;;12.15;100.00
61037;BME280;57313;47.040;15.498;2022-11-03T03:36:31;97555.16;;;12.17;100.00
61037;BME280;57313;47.040;15.498;2022-11-03T03:39:02;97555.16;;;12.17;100.00
61037;BME280;57313;47.040;15.498;2022-11-03T03:41:32;97553.34;;;12.17;100.00
61037;BME280;57313;47.040;15.498;2022-11-03T03:44:05;97557.66;;;12.18;100.00
61037;BME280;57313;47.040;15.498;2022-11-03T03:46:38;97560.16;;;12.20;100.00
61037;BME280;57313;47.040;15.498;2022-11-03T03:49:07;97552.63;;;12.15;100.00
61037;BME280;57313;47.040;15.498;2022-11-03T03:51:36;97552.72;;;12.14;100.00
61037;BME280;57313;47.040;15.498;2022-11-03T03:54:04;97561.88;;;12.07;100.00
61037;BME280;57313;47.040;15.498;2022-11-03T03:56:36;97549.00;;;12.03;100.00
61037;BME280;57313;47.040;15.498;2022-11-03T03:59:12;97551.72;;;12.02;100.00
61037;BME280;57313;47.040;15.498;2022-11-03T04:01:39;97552.84;;;11.98;100.00
61037;BME280;57313;47.040;15.498;2022-11-03T04:04:07;97550.53;;;11.93;100.00
61037;BME280;57313;47.040;15.498;2022-11-03T04:06:35;97552.28;;;11.93;100.00
61037;BME280;57313;47.040;15.498;2022-11-03T04:09:03;97557.75;;;11.88;100.00
61037;BME280;57313;47.040;15.498;2022-11-03T04:11:30;97540.44;;;11.87;100.00
61037;BME280;57313;47.040;15.498;2022-11-03T04:13:58;97556.94;;;11.88;100.00
61037;BME280;57313;47.040;15.498;2022-11-03T04:16:28;97553.59;;;11.85;100.00
61037;BME280;57313;47.040;15.498;2022-11-03T04:18:56;97549.19;;;11.86;100.00
61037;BME280;57313;47.040;15.498;2022-11-03T04:21:23;97540.53;;;11.85;100.00
61037;BME280;57313;47.040;15.498;2022-11-03T04:23:51;97535.41;;;11.84;100.00
61037;BME280;57313;47.040;15.498;2022-11-03T04:26:19;97539.88;;;11.82;100.00
61037;BME280;57313;47.040;15.498;2022-11-03T04:28:47;97545.84;;;11.84;100.00
61037;BME280;57313;47.040;15.498;2022-11-03T04:31:16;97540.63;;;11.84;100.00
61037;BME280;57313;47.040;15.498;2022-11-03T04:33:47;97533.81;;;11.81;100.00
61037;BME280;57313;47.040;15.498;2022-11-03T04:36:17;97540.91;;;11.79;100.00
61037;BME280;57313;47.040;15.498;2022-11-03T04:38:45;97539.41;;;11.75;100.00
61037;BME280;57313;47.040;15.498;2022-11-03T04:41:16;97544.63;;;11.75;100.00
61037;BME280;57313;47.040;15.498;2022-11-03T04:43:44;97532.41;;;11.76;100.00
61037;BME280;57313;47.040;15.498;2022-11-03T04:46:15;97538.50;;;11.76;100.00
61037;BME280;57313;47.040;15.498;2022-11-03T04:48:43;97547.16;;;11.77;100.00
61037;BME280;57313;47.040;15.498;2022-11-03T04:51:16;97552.09;;;11.81;100.00
61037;BME280;57313;47.040;15.498;2022-11-03T04:53:47;97539.22;;;11.78;100.00
61037;BME280;57313;47.040;15.498;2022-11-03T04:56:19;97533.09;;;11.79;100.00
61037;BME280;57313;47.040;15.498;2022-11-03T04:58:47;97531.59;;;11.75;100.00
61037;BME280;57313;47.040;15.498;2022-11-03T05:01:17;97542.94;;;11.74;100.00
61037;BME280;57313;47.040;15.498;2022-11-03T05:03:51;97544.72;;;11.74;100.00
61037;BME280;57313;47.040;15.498;2022-11-03T05:06:22;97525.75;;;11.72;100.00
61037;BME280;57313;47.040;15.498;2022-11-03T05:08:54;97520.53;;;11.72;100.00
61037;BME280;57313;47.040;15.498;2022-11-03T05:11:28;97526.56;;;11.72;100.00
61037;BME280;57313;47.040;15.498;2022-11-03T05:13:58;97519.56;;;11.73;100.00
61037;BME280;57313;47.040;15.498;2022-11-03T05:16:26;97522.38;;;11.70;100.00
61037;BME280;57313;47.040;15.498;2022-11-03T05:18:55;97514.63;;;11.68;100.00
61037;BME280;57313;47.040;15.498;2022-11-03T05:21:26;97513.81;;;11.67;100.00
61037;BME280;57313;47.040;15.498;2022-11-03T05:23:56;97511.09;;;11.69;100.00
61037;BME280;57313;47.040;15.498;2022-11-03T05:26:28;97521.72;;;11.66;100.00
61037;BME280;57313;47.040;15.498;2022-11-03T05:29:00;97509.78;;;11.62;100.00
61037;BME280;57313;47.040;15.498;2022-11-03T05:31:29;97510.75;;;11.61;100.00
61037;BME280;57313;47.040;15.498;2022-11-03T05:33:59;97522.84;;;11.62;100.00
61037;BME280;57313;47.040;15.498;2022-11-03T05:36:29;97519.50;;;11.60;100.00
61037;BME280;57313;47.040;15.498;2022-11-03T05:39:20;97509.06;;;11.60;100.00
61037;BME280;57313;47.040;15.498;2022-11-03T05:41:48;97511.56;;;11.61;100.00
61037;BME280;57313;47.040;15.498;2022-11-03T05:44:24;97500.59;;;11.56;100.00
61037;BME280;57313;47.040;15.498;2022-11-03T05:46:54;97509.44;;;11.54;100.00
61037;BME280;57313;47.040;15.498;2022-11-03T05:49:22;97512.22;;;11.50;100.00
61037;BME280;57313;47.040;15.498;2022-11-03T05:51:51;97513.25;;;11.48;100.00
61037;BME280;57313;47.040;15.498;2022-11-03T05:54:21;97517.00;;;11.44;100.00
61037;BME280;57313;47.040;15.498;2022-11-03T05:56:49;97517.09;;;11.42;100.00
61037;BME280;57313;47.040;15.498;2022-11-03T05:59:19;97507.56;;;11.41;100.00
61037;BME280;57313;47.040;15.498;2022-11-03T06:01:49;97515.41;;;11.41;100.00
61037;BME280;57313;47.040;15.498;2022-11-03T06:04:19;97515.59;;;11.38;100.00
61037;BME280;57313;47.040;15.498;2022-11-03T06:06:51;97527.69;;;11.39;100.00
61037;BME280;57313;47.040;15.498;2022-11-03T06:09:21;97531.97;;;11.40;100.00
61037;BME280;57313;47.040;15.498;2022-11-03T06:11:51;97525.19;;;11.38;100.00
61037;BME280;57313;47.040;15.498;2022-11-03T06:14:21;97525.28;;;11.36;100.00
61037;BME280;57313;47.040;15.498;2022-11-03T06:16:51;97525.28;;;11.36;100.00
61037;BME280;57313;47.040;15.498;2022-11-03T06:19:25;97520.34;;;11.31;100.00
61037;BME280;57313;47.040;15.498;2022-11-03T06:21:57;97527.22;;;11.32;100.00
61037;BME280;57313;47.040;15.498;2022-11-03T06:24:29;97522.84;;;11.33;100.00
61037;BME280;57313;47.040;15.498;2022-11-03T06:26:58;97531.50;;;11.34;100.00
61037;BME280;57313;47.040;15.498;2022-11-03T06:29:30;97534.19;;;11.32;100.00
61037;BME280;57313;47.040;15.498;2022-11-03T06:31:58;97533.19;;;11.35;100.00
61037;BME280;57313;47.040;15.498;2022-11-03T06:34:39;97533.94;;;11.37;100.00
61037;BME280;57313;47.040;15.498;2022-11-03T06:37:18;97545.94;;;11.39;100.00
61037;BME280;57313;47.040;15.498;2022-11-03T06:39:46;97544.44;;;11.35;100.00
61037;BME280;57313;47.040;15.498;2022-11-03T06:42:19;97546.78;;;11.40;100.00
61037;BME280;57313;47.040;15.498;2022-11-03T06:44:48;97546.97;;;11.37;100.00
61037;BME280;57313;47.040;15.498;2022-11-03T06:47:27;97546.97;;;11.37;100.00
61037;BME280;57313;47.040;15.498;2022-11-03T06:49:56;97552.91;;;11.39;100.00
61037;BME280;57313;47.040;15.498;2022-11-03T06:52:28;97542.47;;;11.39;100.00
61037;BME280;57313;47.040;15.498;2022-11-03T06:55:13;97548.47;;;11.41;100.00
61037;BME280;57313;47.040;15.498;2022-11-03T06:57:46;97546.78;;;11.40;100.00
61037;BME280;57313;47.040;15.498;2022-11-03T07:00:18;97542.75;;;11.34;100.00
61037;BME280;57313;47.040;15.498;2022-11-03T07:03:06;97538.31;;;11.36;100.00
61037;BME280;57313;47.040;15.498;2022-11-03T07:05:36;97547.69;;;11.39;100.00
61037;BME280;57313;47.040;15.498;2022-11-03T07:08:14;97542.47;;;11.39;100.00
61037;BME280;57313;47.040;15.498;2022-11-03T07:10:43;97535.44;;;11.41;100.00
61037;BME280;57313;47.040;15.498;2022-11-03T07:13:13;97543.25;;;11.41;100.00
61037;BME280;57313;47.040;15.498;2022-11-03T07:15:42;97535.34;;;11.42;100.00
61037;BME280;57313;47.040;15.498;2022-11-03T07:18:18;97545.50;;;11.47;100.00
61037;BME280;57313;47.040;15.498;2022-11-03T07:20:46;97538.41;;;11.49;100.00
61037;BME280;57313;47.040;15.498;2022-11-03T07:23:18;97539.03;;;11.53;100.00
61037;BME280;57313;47.040;15.498;2022-11-03T07:25:50;97539.91;;;11.53;100.00
61037;BME280;57313;47.040;15.498;2022-11-03T07:28:17;97538.03;;;11.55;100.00
61037;BME280;57313;47.040;15.498;2022-11-03T07:30:45;97538.56;;;11.60;100.00
61037;BME280;57313;47.040;15.498;2022-11-03T07:33:17;97541.94;;;11.62;100.00
61037;BME280;57313;47.040;15.498;2022-11-03T07:35:47;97534.78;;;11.66;100.00
61037;BME280;57313;47.040;15.498;2022-11-03T07:38:38;97533.84;;;11.67;100.00
61037;BME280;57313;47.040;15.498;2022-11-03T07:41:11;97519.13;;;11.66;100.00
61037;BME280;57313;47.040;15.498;2022-11-03T07:43:52;97528.06;;;11.62;100.00
61037;BME280;57313;47.040;15.498;2022-11-03T07:46:21;97515.97;;;11.61;100.00
61037;BME280;57313;47.040;15.498;2022-11-03T07:48:52;97523.50;;;11.65;100.00
61037;BME280;57313;47.040;15.498;2022-11-03T07:51:22;97511.28;;;11.66;100.00
61037;BME280;57313;47.040;15.498;2022-11-03T07:53:54;97511.94;;;11.70;100.00
61037;BME280;57313;47.040;15.498;2022-11-03T07:56:25;97509.22;;;11.71;100.00
61037;BME280;57313;47.040;15.498;2022-11-03T07:58:54;97496.94;;;11.73;100.00
61037;BME280;57313;47.040;15.498;2022-11-03T08:01:26;97497.88;;;11.72;100.00
61037;BME280;57313;47.040;15.498;2022-11-03T08:03:58;97497.69;;;11.75;100.00
61037;BME280;57313;47.040;15.498;2022-11-03T08:06:27;97497.28;;;11.81;100.00
61037;BME280;57313;47.040;15.498;2022-11-03T08:08:56;97489.28;;;11.84;100.00
61037;BME280;57313;47.040;15.498;2022-11-03T08:11:24;97482.84;;;11.90;100.00
61037;BME280;57313;47.040;15.498;2022-11-03T08:13:55;97486.03;;;11.95;100.00
61037;BME280;57313;47.040;15.498;2022-11-03T08:16:23;97486.66;;;11.99;100.00
61037;BME280;57313;47.040;15.498;2022-11-03T08:18:50;97477.91;;;12.00;100.00
61037;BME280;57313;47.040;15.498;2022-11-03T08:21:17;97461.69;;;11.95;100.00
61037;BME280;57313;47.040;15.498;2022-11-03T08:23:44;97473.06;;;11.94;100.00
61037;BME280;57313;47.040;15.498;2022-11-03T08:26:16;97464.31;;;11.95;100.00
61037;BME280;57313;47.040;15.498;2022-11-03T08:28:43;97472.56;;;12.01;100.00
61037;BME280;57313;47.040;15.498;2022-11-03T08:31:10;97466.09;;;12.07;100.00
61037;BME280;57313;47.040;15.498;2022-11-03T08:33:39;97450.25;;;12.10;100.00
61037;BME280;57313;47.040;15.498;2022-11-03T08:36:07;97444.72;;;12.15;100.00
61037;BME280;57313;47.040;15.498;2022-11-03T08:38:36;97434.38;;;12.13;100.00
61037;BME280;57313;47.040;15.498;2022-11-03T08:41:03;97427.22;;;12.17;100.00
61037;BME280;57313;47.040;15.498;2022-11-03T08:43:32;97433.88;;;12.21;100.00
61037;BME280;57313;47.040;15.498;2022-11-03T08:45:59;97441.97;;;12.31;100.00
61037;BME280;57313;47.040;15.498;2022-11-03T08:48:41;97428.38;;;12.26;100.00
61037;BME280;57313;47.040;15.498;2022-11-03T08:51:09;97416.16;;;12.26;100.00
61037;BME280;57313;47.040;15.498;2022-11-03T08:53:36;97414.19;;;12.30;100.00
61037;BME280;57313;47.040;15.498;2022-11-03T08:56:05;97411.47;;;12.31;100.00
61037;BME280;57313;47.040;15.498;2022-11-03T08:58:40;97405.75;;;12.39;100.00
61037;BME280;57313;47.040;15.498;2022-11-03T09:01:07;97409.72;;;12.45;100.00
61037;BME280;57313;47.040;15.498;2022-11-03T09:03:35;97399.91;;;12.48;100.00
61037;BME280;57313;47.040;15.498;2022-11-03T09:06:05;97394.88;;;12.45;100.00
61037;BME280;57313;47.040;15.498;2022-11-03T09:08:33;97405.13;;;12.48;100.00
61037;BME280;57313;47.040;15.498;2022-11-03T09:11:20;97410.16;;;12.51;100.00
61037;BME280;57313;47.040;15.498;2022-11-03T09:13:50;97402.94;;;12.55;100.00
61037;BME280;57313;47.040;15.498;2022-11-03T09:16:17;97395.19;;;12.53;100.00
61037;BME280;57313;47.040;15.498;2022-11-03T09:18:45;97397.59;;;12.56;100.00
61037;BME280;57313;47.040;15.498;2022-11-03T09:21:12;97394.69;;;12.61;100.00
61037;BME280;57313;47.040;15.498;2022-11-03T09:23:41;97388.53;;;12.62;100.00
61037;BME280;57313;47.040;15.498;2022-11-03T09:26:08;97391.13;;;12.62;100.00
61037;BME280;57313;47.040;15.498;2022-11-03T09:28:35;97397.19;;;12.63;100.00
61037;BME280;57313;47.040;15.498;2022-11-03T09:31:05;97391.75;;;12.66;100.00
61037;BME280;57313;47.040;15.498;2022-11-03T09:33:33;97386.22;;;12.70;100.00
61037;BME280;57313;47.040;15.498;2022-11-03T09:36:00;97379.84;;;12.74;100.00
61037;BME280;57313;47.040;15.498;2022-11-03T09:38:29;97386.56;;;12.79;100.00
61037;BME280;57313;47.040;15.498;2022-11-03T09:40:56;97377.53;;;12.83;100.00
61037;BME280;57313;47.040;15.498;2022-11-03T09:43:24;97379.03;;;12.87;100.00
61037;BME280;57313;47.040;15.498;2022-11-03T09:45:52;97384.66;;;12.93;100.00
61037;BME280;57313;47.040;15.498;2022-11-03T09:48:21;97362.69;;;12.96;100.00
61037;BME280;57313;47.040;15.498;2022-11-03T09:50:50;97361.84;;;12.96;100.00
61037;BME280;57313;47.040;15.498;2022-11-03T09:53:20;97360.31;;;12.93;100.00
61037;BME280;57313;47.040;15.498;2022-11-03T09:55:47;97350.28;;;12.87;100.00
61037;BME280;57313;47.040;15.498;2022-11-03T09:58:17;97347.66;;;12.87;100.00
61037;BME280;57313;47.040;15.498;2022-11-03T10:00:44;97349.19;;;12.89;100.00
61037;BME280;57313;47.040;15.498;2022-11-03T10:03:13;97332.97;;;12.97;100.00
61037;BME280;57313;47.040;15.498;2022-11-03T10:05:45;97328.19;;;13.04;100.00
61037;BME280;57313;47.040;15.498;2022-11-03T10:08:19;97327.00;;;13.08;100.00
61037;BME280;57313;47.040;15.498;2022-11-03T10:10:48;97327.22;;;13.05;100.00
61037;BME280;57313;47.040;15.498;2022-11-03T10:13:21;97319.03;;;13.09;100.00
61037;BME280;57313;47.040;15.498;2022-11-03T10:15:49;97315.59;;;13.09;100.00
61037;BME280;57313;47.040;15.498;2022-11-03T10:18:17;97311.94;;;13.11;100.00
61037;BME280;57313;47.040;15.498;2022-11-03T10:20:47;97305.25;;;13.07;100.00
61037;BME280;57313;47.040;15.498;2022-11-03T10:23:15;97296.28;;;12.99;100.00
61037;BME280;57313;47.040;15.498;2022-11-03T10:25:43;97292.84;;;12.98;100.00
61037;BME280;57313;47.040;15.498;2022-11-03T10:28:17;97285.00;;;12.98;100.00
61037;BME280;57313;47.040;15.498;2022-11-03T10:30:53;97268.75;;;13.06;100.00
61037;BME280;57313;47.040;15.498;2022-11-03T10:33:40;97265.50;;;13.15;100.00
61037;BME280;57313;47.040;15.498;2022-11-03T10:36:24;97272.69;;;13.24;100.00
61037;BME280;57313;47.040;15.498;2022-11-03T10:38:52;97262.81;;;13.28;100.00
61037;BME280;57313;47.040;15.498;2022-11-03T10:41:21;97250.72;;;13.27;100.00
61037;BME280;57313;47.040;15.498;2022-11-03T10:44:00;97246.41;;;13.26;100.00
61037;BME280;57313;47.040;15.498;2022-11-03T10:46:29;97244.50;;;13.28;100.00
61037;BME280;57313;47.040;15.498;2022-11-03T10:49:17;97239.91;;;13.32;100.00
61037;BME280;57313;47.040;15.498;2022-11-03T10:51:50;97224.97;;;13.34;100.00
61037;BME280;57313;47.040;15.498;2022-11-03T10:54:21;97226.66;;;13.35;100.00
61037;BME280;57313;47.040;15.498;2022-11-03T10:56:50;97219.19;;;13.41;100.00
61037;BME280;57313;47.040;15.498;2022-11-03T10:59:20;97214.53;;;13.45;100.00
61037;BME280;57313;47.040;15.498;2022-11-03T11:01:49;97205.75;;;13.46;100.00
61037;BME280;57313;47.040;15.498;2022-11-03T11:04:18;97199.47;;;13.49;100.00
61037;BME280;57313;47.040;15.498;2022-11-03T11:06:48;97201.75;;;13.53;100.00
61037;BME280;57313;47.040;15.498;2022-11-03T11:09:21;97200.66;;;13.56;100.00
61037;BME280;57313;47.040;15.498;2022-11-03T11:12:00;97188.53;;;13.55;100.00
61037;BME280;57313;47.040;15.498;2022-11-03T11:14:36;97193.53;;;13.58;100.00
61037;BME280;57313;47.040;15.498;2022-11-03T11:17:05;97186.19;;;13.63;100.00
61037;BME280;57313;47.040;15.498;2022-11-03T11:22:34;97180.50;;;13.69;100.00
61037;BME280;57313;47.040;15.498;2022-11-03T11:25:01;97175.97;;;13.71;100.00
61037;BME280;57313;47.040;15.498;2022-11-03T11:27:54;97164.22;;;13.77;100.00
61037;BME280;57313;47.040;15.498;2022-11-03T11:33:26;97157.66;;;13.82;100.00
61037;BME280;57313;47.040;15.498;2022-11-03T11:38:59;97152.94;;;13.99;100.00
61037;BME280;57313;47.040;15.498;2022-11-03T11:47:47;97148.41;;;14.01;100.00
61037;BME280;57313;47.040;15.498;2022-11-03T11:50:27;97131.38;;;14.07;100.00
61037;BME280;57313;47.040;15.498;2022-11-03T11:52:58;97121.38;;;14.12;100.00
61037;BME280;57313;47.040;15.498;2022-11-03T11:55:32;97124.97;;;14.11;100.00
61037;BME280;57313;47.040;15.498;2022-11-03T11:58:01;97124.63;;;14.15;100.00
61037;BME280;57313;47.040;15.498;2022-11-03T12:00:31;97115.19;;;14.24;100.00
61037;BME280;57313;47.040;15.498;2022-11-03T12:03:00;97107.81;;;14.29;100.00
61037;BME280;57313;47.040;15.498;2022-11-03T12:05:30;97105.31;;;14.28;100.00
61037;BME280;57313;47.040;15.498;2022-11-03T12:07:58;97098.78;;;14.22;100.00
61037;BME280;57313;47.040;15.498;2022-11-03T12:10:27;97094.00;;;14.27;100.00
61037;BME280;57313;47.040;15.498;2022-11-03T12:12:58;97103.50;;;14.40;100.00
61037;BME280;57313;47.040;15.498;2022-11-03T12:15:48;97084.19;;;14.52;100.00
61037;BME280;57313;47.040;15.498;2022-11-03T12:18:33;97081.06;;;14.58;100.00
61037;BME280;57313;47.040;15.498;2022-11-03T12:21:08;97073.09;;;14.60;100.00
61037;BME280;57313;47.040;15.498;2022-11-03T12:23:38;97070.50;;;14.48;99.60
61037;BME280;57313;47.040;15.498;2022-11-03T12:26:15;97055.53;;;14.39;100.00
61037;BME280;57313;47.040;15.498;2022-11-03T12:28:45;97053.72;;;14.40;100.00
61037;BME280;57313;47.040;15.498;2022-11-03T12:31:12;97053.34;;;14.44;100.00
61037;BME280;57313;47.040;15.498;2022-11-03T12:33:40;97043.56;;;14.46;100.00
61037;BME280;57313;47.040;15.498;2022-11-03T12:36:08;97041.56;;;14.50;100.00
61037;BME280;57313;47.040;15.498;2022-11-03T12:38:36;97038.22;;;14.48;100.00
61037;BME280;57313;47.040;15.498;2022-11-03T12:41:04;97038.00;;;14.40;100.00
61037;BME280;57313;47.040;15.498;2022-11-03T12:43:31;97026.81;;;14.38;100.00
61037;BME280;57313;47.040;15.498;2022-11-03T12:46:00;97035.25;;;14.41;100.00
61037;BME280;57313;47.040;15.498;2022-11-03T12:48:29;97032.88;;;14.38;100.00
61037;BME280;57313;47.040;15.498;2022-11-03T12:50:56;97027.56;;;14.28;100.00
61037;BME280;57313;47.040;15.498;2022-11-03T12:53:24;97023.50;;;14.24;100.00
61037;BME280;57313;47.040;15.498;2022-11-03T12:55:51;97026.88;;;14.26;100.00
61037;BME280;57313;47.040;15.498;2022-11-03T12:58:18;97018.59;;;14.31;100.00
61037;BME280;57313;47.040;15.498;2022-11-03T13:00:46;97009.44;;;14.36;100.00
61037;BME280;57313;47.040;15.498;2022-11-03T13:03:23;97002.03;;;14.42;100.00
61037;BME280;57313;47.040;15.498;2022-11-03T13:05:51;96987.28;;;14.41;100.00
61037;BME280;57313;47.040;15.498;2022-11-03T13:08:19;96986.81;;;14.35;100.00
61037;BME280;57313;47.040;15.498;2022-11-03T13:10:47;96983.38;;;14.35;100.00
61037;BME280;57313;47.040;15.498;2022-11-03T13:13:17;96973.81;;;14.34;100.00